Detall de PIREP

Printer-friendly versionPDF version

[2011/06/17 15:33:00]
Flight IATA:CT3233
Pilot Number:037
Company ICAO:CAT
Aircraft Type:B763/F
PAX:185
Departing Airport: LEMD
Destination Airport: LEPA
Alternate Airport:LEBL
Online: VATSIM
Route:NANDO UW107 CLS UN733 GATOS
Flight Level:F290
No Slew and time accel
No pause
Crash detect
Detect pilot in Cockpit between each 30 and 45 minutes
15:33 Zero fuel Weight: 281504 Lbs, Fuel Weight: 34631 Lbs
15:33 VATSIM:LEMD 171500Z 23010KT 150V290 CAVOK 31/06 Q1014 WS R18L WS R18R NOSIG
15:33 VATSIM:LEPA 171500Z 24006KT 190V270 CAVOK 29/16 Q1013 NOSIG
15:45 Parking Brakes off
15:56 Take-off
15:56 Take off Weight: 314140 Lbs
15:56 Wind: 254º @ 010 Knots Heading: 318º
15:56 POS N40º 28´ 06´´ W003º 33´ 34´´
15:56 Gear Up: 164 Knots
15:56 Flaps:3 at 164 Knots
15:56 Flaps:2 at 179 Knots
15:56 Flaps:1 at 208 Knots
15:57 Flaps:0 at 240 Knots
16:11 Wind:255º@041 Knots Heading: 104º Ground Speed: 511 Knots Altitude 24701 ft
16:13 TOC
16:13 Fuel Weight: 26506 Lb
16:26 Wind:120º@024 Knots Heading: 109º Ground Speed: 466 Knots Altitude 28927 ft
16:31 TOD
16:31 Fuel Weight: 22860 Lb
16:41 Wind:236º@021 Knots Heading: 093º Ground Speed: 361 Knots Altitude 15108 ft
16:53 Flaps:1 at 222 Knots
16:53 Flaps:2 at 200 Knots
16:54 Flaps:3 at 181 Knots
16:56 Wind:258º@016 Knots Heading: 219º Ground Speed: 186 Knots Altitude 4005 ft
16:57 Gear Down: 185 Knots
17:00 Flaps:4 at 164 Knots
17:01 Flaps:5 at 163 Knots
17:01 Flaps:6 at 147 Knots
17:02 TouchDown:Rate -173 ft/min Speed: 123 Knots
17:03 VATSIM:LEPA 171630Z 26009KT 230V290 CAVOK 28/19 Q1012 NOSIG
17:03 Land
17:03 Wind:263º@009 Knots
17:03 Heading: 237º
17:03 Flight Duration: 01:07
17:03 Landing Weight: 300740 Lbs
17:03 POS N39º 32´ 59´´ E002º 45´ 00´´
17:07 Parking brakes on
17:07Block to Block Duration: 01:22
17:07 Final Fuel: 18470 Lbls
17:07 Spent Fuel: 16161 Lbls
17:07 Flight Length: 287 NM
17:07 TOD Land Length: 142 NM

Exportar CSV

Powered by Drupal - Modified by Danger4k